createdAt,value
2022-10-02T00:02:42.059Z,98354.01
2022-10-02T00:05:52.999Z,98355.08
2022-10-02T00:09:04.730Z,98359.25
2022-10-02T00:12:15.685Z,98359.45
2022-10-02T00:15:27.780Z,98359.99
2022-10-02T00:18:38.470Z,98362.52
2022-10-02T00:22:02.728Z,98359.73
2022-10-02T00:25:19.024Z,98367.02
2022-10-02T00:28:29.971Z,98363.33
2022-10-02T00:31:46.076Z,98363.64
2022-10-02T00:35:05.708Z,98365.74
2022-10-02T00:38:21.891Z,98365.95
2022-10-02T00:41:55.811Z,98368.27
2022-10-02T00:45:27.881Z,98370.42
2022-10-02T00:48:55.135Z,98374.53
2022-10-02T00:52:19.865Z,98379.98
2022-10-02T00:55:53.226Z,98378.65
2022-10-02T00:59:30.514Z,98382.36
2022-10-02T01:02:57.943Z,98379.09
2022-10-02T01:06:04.179Z,98376.08
2022-10-02T01:09:08.804Z,98381.25
2022-10-02T01:12:16.262Z,98381.13
2022-10-02T01:15:29.127Z,98381.44
2022-10-02T01:18:35.392Z,98383.53
2022-10-02T01:21:50.843Z,98379.48
2022-10-02T01:24:57.756Z,98378.81
2022-10-02T01:28:05.840Z,98382.46
2022-10-02T01:31:14.837Z,98391.17
2022-10-02T01:34:21.655Z,98392.70
2022-10-02T01:37:31.173Z,98402.21
2022-10-02T01:40:38.935Z,98407.79
2022-10-02T01:43:49.279Z,98408.20
2022-10-02T01:47:02.584Z,98411.98
2022-10-02T01:50:19.236Z,98418.77
2022-10-02T01:53:33.079Z,98419.17
2022-10-02T01:56:49.221Z,98426.39
2022-10-02T02:00:07.710Z,98431.22
2022-10-02T02:03:23.584Z,98441.31
2022-10-02T02:06:35.450Z,98439.48
2022-10-02T02:09:47.360Z,98446.34
2022-10-02T02:13:01.861Z,98449.35
2022-10-02T02:16:15.515Z,98456.89
2022-10-02T02:19:27.151Z,98463.17
2022-10-02T02:22:35.649Z,98466.95
2022-10-02T02:25:45.390Z,98467.11
2022-10-02T02:28:58.648Z,98472.90
2022-10-02T02:32:09.359Z,98475.40
2022-10-02T02:35:18.620Z,98477.06
2022-10-02T02:38:30.886Z,98477.39
2022-10-02T02:41:43.078Z,98479.40
2022-10-02T02:44:54.275Z,98478.64
2022-10-02T02:48:05.783Z,98481.89
2022-10-02T02:51:16.529Z,98478.27
2022-10-02T02:54:29.163Z,98483.93
2022-10-02T02:57:41.635Z,98483.98
2022-10-02T03:00:48.122Z,98483.35
2022-10-02T03:03:54.427Z,98481.80
2022-10-02T03:07:04.343Z,98481.85
2022-10-02T03:10:17.554Z,98484.52
2022-10-02T03:13:37.277Z,98489.33
2022-10-02T03:16:55.277Z,98492.38
2022-10-02T03:20:08.927Z,98492.30
2022-10-02T03:23:23.788Z,98491.09
2022-10-02T03:26:38.611Z,98499.36
2022-10-02T03:29:51.918Z,98502.14
2022-10-02T03:33:01.320Z,98500.96
2022-10-02T03:36:08.121Z,98506.20
2022-10-02T03:39:29.949Z,98508.48
2022-10-02T03:42:38.287Z,98510.87
2022-10-02T03:45:51.281Z,98516.29
2022-10-02T03:48:58.140Z,98513.02
2022-10-02T03:52:03.023Z,98514.48
2022-10-02T03:55:22.694Z,98508.04
2022-10-02T03:58:28.951Z,98507.58
2022-10-02T04:01:38.344Z,98509.25
2022-10-02T04:04:49.265Z,98517.14
2022-10-02T04:07:59.122Z,98520.85
2022-10-02T04:11:12.940Z,98528.14
2022-10-02T04:14:24.269Z,98531.26
2022-10-02T04:17:36.676Z,98546.39
2022-10-02T04:20:48.827Z,98549.39
2022-10-02T04:23:58.923Z,98558.06
2022-10-02T04:27:09.461Z,98557.80
2022-10-02T04:30:18.217Z,98559.34
2022-10-02T04:33:26.192Z,98562.79
2022-10-02T04:36:43.052Z,98565.89
2022-10-02T04:40:06.656Z,98571.09
2022-10-02T04:43:23.810Z,98579.08
2022-10-02T04:46:47.624Z,98578.41
2022-10-02T04:50:20.084Z,98578.71
2022-10-02T04:53:42.591Z,98580.70
2022-10-02T04:57:03.348Z,98586.44
2022-10-02T05:00:13.078Z,98591.98
2022-10-02T05:03:40.971Z,98597.60
2022-10-02T05:07:02.479Z,98602.73
2022-10-02T05:10:24.798Z,98602.86
2022-10-02T05:14:07.230Z,98606.28
2022-10-02T05:17:29.454Z,98609.22
2022-10-02T05:20:53.867Z,98615.65
2022-10-02T05:24:19.786Z,98617.51
2022-10-02T05:27:49.405Z,98620.19
2022-10-02T05:31:04.534Z,98624.23
2022-10-02T05:34:32.711Z,98627.05
2022-10-02T05:37:53.057Z,98631.54
2022-10-02T05:41:06.161Z,98643.89
2022-10-02T05:44:18.926Z,98644.98
2022-10-02T05:47:30.087Z,98652.22
2022-10-02T05:50:39.335Z,98652.92
2022-10-02T05:53:51.777Z,98657.52
2022-10-02T05:57:04.451Z,98662.90
2022-10-02T06:00:24.229Z,98664.02
2022-10-02T06:03:37.242Z,98665.29
2022-10-02T06:06:47.656Z,98668.05
2022-10-02T06:10:00.409Z,98672.71
2022-10-02T06:13:14.056Z,98671.36
2022-10-02T06:16:25.825Z,98675.52
2022-10-02T06:19:35.905Z,98676.60
2022-10-02T06:22:47.826Z,98682.30
2022-10-02T06:25:57.754Z,98686.58
2022-10-02T06:29:06.681Z,98686.16
2022-10-02T06:32:24.898Z,98691.89
2022-10-02T06:35:44.416Z,98694.49
2022-10-02T06:39:19.400Z,98700.64
2022-10-02T06:42:42.864Z,98700.73
2022-10-02T06:45:58.923Z,98704.55
2022-10-02T06:49:13.541Z,98708.69
2022-10-02T06:52:35.765Z,98713.77
2022-10-02T06:55:52.114Z,98720.17
2022-10-02T06:59:10.579Z,98725.80
2022-10-02T07:02:33.891Z,98727.29
2022-10-02T07:06:07.479Z,98730.48
2022-10-02T07:09:44.181Z,98734.16
2022-10-02T07:13:12.157Z,98739.01
2022-10-02T07:16:33.387Z,98740.68
2022-10-02T07:20:06.112Z,98745.58
2022-10-02T07:23:29.495Z,98745.48
2022-10-02T07:26:55.099Z,98740.36
2022-10-02T07:30:06.444Z,98741.08
2022-10-02T07:33:21.195Z,98738.63
2022-10-02T07:36:39.174Z,98744.81
2022-10-02T07:39:58.391Z,98752.41
2022-10-02T07:43:18.250Z,98756.98
2022-10-02T07:46:34.339Z,98761.67
2022-10-02T07:49:52.174Z,98754.92
2022-10-02T07:53:10.843Z,98749.81
2022-10-02T07:56:22.787Z,98752.23
2022-10-02T07:59:31.743Z,98744.45
2022-10-02T08:02:44.515Z,98748.43
2022-10-02T08:05:53.638Z,98746.32
2022-10-02T08:09:04.475Z,98748.27
2022-10-02T08:12:28.306Z,98747.27
2022-10-02T08:15:38.692Z,98749.81
2022-10-02T08:18:50.350Z,98756.01
2022-10-02T08:22:02.423Z,98749.48
2022-10-02T08:25:18.712Z,98748.10
2022-10-02T08:28:30.558Z,98740.10
2022-10-02T08:31:36.895Z,98737.31
2022-10-02T08:34:44.269Z,98743.95
2022-10-02T08:38:10.303Z,98750.45
2022-10-02T08:41:44.416Z,98744.14
2022-10-02T08:45:35.887Z,98744.27
2022-10-02T08:49:28.528Z,98742.46
2022-10-02T08:53:00.156Z,98738.66
2022-10-02T08:56:26.508Z,98747.25
2022-10-02T09:00:07.549Z,98741.81
2022-10-02T09:03:52.323Z,98741.30
2022-10-02T09:07:29.434Z,98738.67
2022-10-02T09:11:20.975Z,98733.70
2022-10-02T09:14:47.660Z,98731.00
2022-10-02T09:18:07.921Z,98727.83
2022-10-02T09:21:29.291Z,98722.49
2022-10-02T09:25:11.324Z,98720.48
2022-10-02T09:28:59.471Z,98715.91
2022-10-02T09:32:43.435Z,98716.72
2022-10-02T09:36:29.285Z,98720.79
2022-10-02T09:40:10.913Z,98718.13
2022-10-02T09:43:51.660Z,98717.55
2022-10-02T09:47:24.460Z,98714.17
2022-10-02T09:51:21.767Z,98712.73
2022-10-02T09:55:01.699Z,98718.70
2022-10-02T09:58:44.276Z,98712.06
2022-10-02T10:02:31.199Z,98708.18
2022-10-02T10:06:14.292Z,98708.47
2022-10-02T10:10:05.395Z,98708.23
2022-10-02T10:13:38.925Z,98702.96
2022-10-02T10:17:21.529Z,98700.98
2022-10-02T10:21:01.906Z,98707.09
2022-10-02T10:24:39.974Z,98709.20
2022-10-02T10:28:13.000Z,98703.86
2022-10-02T10:31:57.473Z,98705.14
2022-10-02T10:35:37.536Z,98703.58
2022-10-02T10:38:53.185Z,98702.30
2022-10-02T10:43:03.083Z,98702.20
2022-10-02T10:46:23.368Z,98700.20
2022-10-02T10:50:12.119Z,98699.48
2022-10-02T10:53:44.979Z,98693.17
2022-10-02T10:56:55.869Z,98698.27
2022-10-02T11:00:22.056Z,98699.81
2022-10-02T11:04:04.808Z,98687.81
2022-10-02T11:07:36.458Z,98682.23
2022-10-02T11:10:53.824Z,98678.19
2022-10-02T11:14:20.686Z,98680.21
2022-10-02T11:17:42.819Z,98681.70
2022-10-02T11:21:23.320Z,98669.42
2022-10-02T11:24:51.084Z,98666.99
2022-10-02T11:28:32.414Z,98668.20
2022-10-02T11:32:01.236Z,98668.25
2022-10-02T11:35:25.370Z,98666.30
2022-10-02T11:38:55.543Z,98660.92
2022-10-02T11:42:29.356Z,98654.35
2022-10-02T11:45:49.973Z,98655.58
2022-10-02T11:49:27.357Z,98662.07
2022-10-02T11:53:00.742Z,98661.88
2022-10-02T11:56:31.289Z,98657.79
2022-10-02T12:00:06.415Z,98653.96
2022-10-02T12:03:21.939Z,98654.77
2022-10-02T12:06:47.916Z,98654.23
2022-10-02T12:10:06.616Z,98657.15
2022-10-02T12:13:38.849Z,98650.17
2022-10-02T12:17:07.887Z,98649.47
2022-10-02T12:20:42.481Z,98644.56
2022-10-02T12:24:14.549Z,98645.61
2022-10-02T12:27:30.957Z,98643.62
2022-10-02T12:30:44.709Z,98640.00
2022-10-02T12:34:01.388Z,98636.80
2022-10-02T12:37:16.800Z,98638.09
2022-10-02T12:40:32.049Z,98632.04
2022-10-02T12:44:05.569Z,98627.26
2022-10-02T12:47:35.502Z,98632.09
2022-10-02T12:51:06.040Z,98625.48
2022-10-02T12:54:46.491Z,98619.17
2022-10-02T12:58:07.515Z,98623.05
2022-10-02T13:01:54.028Z,98635.06
2022-10-02T13:05:44.611Z,98628.80
2022-10-02T13:09:19.773Z,98631.46
2022-10-02T13:12:51.090Z,98612.88
2022-10-02T13:16:04.656Z,98596.38
2022-10-02T13:19:21.311Z,98607.60
2022-10-02T13:22:38.219Z,98604.60
2022-10-02T13:26:06.872Z,98592.40
2022-10-02T13:29:29.457Z,98590.48
2022-10-02T13:32:59.588Z,98593.39
2022-10-02T13:36:17.245Z,98589.13
2022-10-02T13:39:36.996Z,98577.89
2022-10-02T13:43:09.329Z,98574.07
2022-10-02T13:46:30.480Z,98581.25
2022-10-02T13:49:55.763Z,98575.19
2022-10-02T13:53:32.350Z,98577.20
2022-10-02T13:56:51.916Z,98570.27
2022-10-02T14:00:09.549Z,98563.65
2022-10-02T14:03:23.403Z,98557.12
2022-10-02T14:06:35.528Z,98549.48
2022-10-02T14:09:53.040Z,98546.80
2022-10-02T14:13:19.979Z,98545.77
2022-10-02T14:16:40.357Z,98542.44
2022-10-02T14:20:18.875Z,98542.14
2022-10-02T14:23:53.983Z,98537.64
2022-10-02T14:27:12.947Z,98534.44
2022-10-02T14:30:23.824Z,98536.42
2022-10-02T14:33:40.513Z,98537.01
2022-10-02T14:36:57.314Z,98536.61
2022-10-02T14:40:11.247Z,98531.84
2022-10-02T14:43:33.769Z,98528.20
2022-10-02T14:47:15.392Z,98520.90
2022-10-02T14:50:51.411Z,98515.68
2022-10-02T14:54:13.835Z,98514.38
2022-10-02T14:57:37.863Z,98515.15
2022-10-02T15:00:56.470Z,98520.77
2022-10-02T15:04:31.899Z,98524.72
2022-10-02T15:07:39.278Z,98522.52
2022-10-02T15:10:51.011Z,98525.69
2022-10-02T15:14:04.948Z,98525.05
2022-10-02T15:17:34.735Z,98524.86
2022-10-02T15:20:59.558Z,98530.09
2022-10-02T15:24:28.842Z,98530.54
2022-10-02T15:27:44.287Z,98533.16
2022-10-02T15:30:58.133Z,98538.97
2022-10-02T15:34:15.186Z,98543.56
2022-10-02T15:37:28.005Z,98532.98
2022-10-02T15:40:37.944Z,98532.64
2022-10-02T15:44:06.961Z,98522.17
2022-10-02T15:47:32.148Z,98515.89
2022-10-02T15:50:53.388Z,98521.41
2022-10-02T15:54:11.053Z,98524.15
2022-10-02T15:57:31.355Z,98529.64
2022-10-02T16:01:02.183Z,98526.12
2022-10-02T16:04:23.113Z,98524.41
2022-10-02T16:07:47.154Z,98526.48
2022-10-02T16:11:06.961Z,98526.55
2022-10-02T16:14:16.210Z,98522.84
2022-10-02T16:17:41.331Z,98519.45
2022-10-02T16:21:20.043Z,98519.89
2022-10-02T16:24:41.424Z,98515.81
2022-10-02T16:28:04.476Z,98514.09
2022-10-02T16:31:26.062Z,98513.52
2022-10-02T16:35:13.264Z,98513.35
2022-10-02T16:38:25.951Z,98516.04
2022-10-02T16:41:42.688Z,98521.25
2022-10-02T16:45:07.360Z,98516.77
2022-10-02T16:48:18.234Z,98520.45
2022-10-02T16:51:50.659Z,98519.84
2022-10-02T16:55:06.810Z,98519.23
2022-10-02T16:58:27.412Z,98522.45
2022-10-02T17:02:05.502Z,98525.19
2022-10-02T17:05:23.365Z,98535.97
2022-10-02T17:08:37.729Z,98556.31
2022-10-02T17:11:53.998Z,98566.83
2022-10-02T17:15:10.220Z,98578.01
2022-10-02T17:18:29.537Z,98606.59
2022-10-02T17:21:45.805Z,98593.53
2022-10-02T17:25:02.634Z,98578.94
2022-10-02T17:28:21.102Z,98568.36
2022-10-02T17:31:42.114Z,98568.29
2022-10-02T17:34:52.066Z,98558.70
2022-10-02T17:38:18.781Z,98545.83
2022-10-02T17:41:42.497Z,98538.77
2022-10-02T17:44:58.271Z,98544.15
2022-10-02T17:48:21.914Z,98546.67
2022-10-02T17:51:53.669Z,98544.73
2022-10-02T17:55:27.687Z,98552.62
2022-10-02T17:58:44.295Z,98545.73
2022-10-02T18:02:02.291Z,98540.98
2022-10-02T18:05:22.324Z,98536.82
2022-10-02T18:09:06.992Z,98527.83
2022-10-02T18:12:51.954Z,98520.40
2022-10-02T18:16:10.645Z,98508.23
2022-10-02T18:19:36.427Z,98504.96
2022-10-02T18:22:58.567Z,98499.23
2022-10-02T18:26:20.258Z,98496.12
2022-10-02T18:29:38.048Z,98495.74
2022-10-02T18:33:09.302Z,98494.30
2022-10-02T18:36:39.252Z,98496.48
2022-10-02T18:40:04.876Z,98495.01
2022-10-02T18:43:43.466Z,98496.98
2022-10-02T18:46:59.464Z,98495.02
2022-10-02T18:50:18.525Z,98495.27
2022-10-02T18:53:52.268Z,98490.68
2022-10-02T18:57:14.413Z,98490.02
2022-10-02T19:00:24.429Z,98487.02
2022-10-02T19:03:37.999Z,98488.95
2022-10-02T19:06:53.573Z,98492.01
2022-10-02T19:10:29.370Z,98491.83
2022-10-02T19:13:42.276Z,98492.86
2022-10-02T19:17:02.567Z,98497.67
2022-10-02T19:20:37.095Z,98499.22
2022-10-02T19:23:50.433Z,98492.86
2022-10-02T19:27:00.724Z,98492.54
2022-10-02T19:30:23.579Z,98491.66
2022-10-02T19:33:43.530Z,98485.48
2022-10-02T19:36:53.239Z,98481.19
2022-10-02T19:40:03.292Z,98481.52
2022-10-02T19:43:19.102Z,98482.27
2022-10-02T19:46:39.928Z,98496.45
2022-10-02T19:49:48.058Z,98526.24
2022-10-02T19:52:58.872Z,98525.21
2022-10-02T19:56:11.248Z,98536.15
2022-10-02T19:59:21.219Z,98548.72
2022-10-02T20:02:31.255Z,98560.31
2022-10-02T20:05:38.785Z,98565.68
2022-10-02T20:08:47.946Z,98570.12
2022-10-02T20:11:56.437Z,98568.93
2022-10-02T20:15:10.260Z,98567.84
2022-10-02T20:18:17.086Z,98575.34
2022-10-02T20:21:30.903Z,98572.95
2022-10-02T20:24:42.636Z,98570.09
2022-10-02T20:27:54.178Z,98575.29
2022-10-02T20:31:05.945Z,98576.73
2022-10-02T20:34:23.692Z,98573.55
2022-10-02T20:37:35.079Z,98573.73
2022-10-02T20:40:47.651Z,98577.88
2022-10-02T20:43:56.670Z,98576.22
2022-10-02T20:47:32.219Z,98572.45
2022-10-02T20:50:41.728Z,98571.36
2022-10-02T20:54:18.880Z,98573.87
2022-10-02T20:58:01.626Z,98583.11
2022-10-02T21:01:20.021Z,98577.39
2022-10-02T21:05:11.224Z,98585.31
2022-10-02T21:08:40.864Z,98583.65
2022-10-02T21:12:11.270Z,98586.89
2022-10-02T21:15:58.804Z,98592.33
2022-10-02T21:19:31.638Z,98592.23
2022-10-02T21:23:23.733Z,98594.92
2022-10-02T21:26:48.962Z,98592.41
2022-10-02T21:30:04.981Z,98592.11
2022-10-02T21:33:21.704Z,98587.67
2022-10-02T21:36:34.196Z,98591.95
2022-10-02T21:40:09.423Z,98589.89
2022-10-02T21:43:48.981Z,98588.74
2022-10-02T21:47:18.963Z,98582.12
2022-10-02T21:51:07.954Z,98590.21
2022-10-02T21:54:49.845Z,98591.92
2022-10-02T21:58:38.710Z,98594.02
2022-10-02T22:02:15.256Z,98599.54
2022-10-02T22:05:42.082Z,98600.84
2022-10-02T22:09:03.363Z,98606.41
2022-10-02T22:12:21.842Z,98601.52
2022-10-02T22:15:39.637Z,98600.66
2022-10-02T22:18:54.947Z,98606.70
2022-10-02T22:22:13.407Z,98610.30
2022-10-02T22:25:34.342Z,98604.76
2022-10-02T22:28:46.399Z,98600.92
2022-10-02T22:32:29.513Z,98599.83
2022-10-02T22:35:50.046Z,98602.98
2022-10-02T22:39:03.580Z,98603.70
2022-10-02T22:42:15.871Z,98599.05
2022-10-02T22:45:27.755Z,98599.59
2022-10-02T22:48:41.412Z,98602.28
2022-10-02T22:51:54.889Z,98605.77
2022-10-02T22:55:11.479Z,98603.48
2022-10-02T22:58:24.376Z,98601.09
2022-10-02T23:01:39.777Z,98597.92
2022-10-02T23:04:53.408Z,98603.21
2022-10-02T23:08:06.795Z,98607.17
2022-10-02T23:11:18.193Z,98608.23
2022-10-02T23:14:35.747Z,98611.02
2022-10-02T23:17:50.826Z,98608.20
2022-10-02T23:21:04.955Z,98609.61
2022-10-02T23:24:26.169Z,98611.06
2022-10-02T23:27:39.859Z,98613.62
2022-10-02T23:30:50.234Z,98609.48
2022-10-02T23:34:03.914Z,98612.83
2022-10-02T23:37:18.735Z,98612.11
2022-10-02T23:40:43.990Z,98617.04
2022-10-02T23:43:58.791Z,98624.42
2022-10-02T23:47:17.539Z,98625.81
2022-10-02T23:50:28.394Z,98623.67
2022-10-02T23:53:58.564Z,98623.27
2022-10-02T23:57:21.814Z,98625.19
